Chicago Midway International Airport
KMDW : now visible

Airfield :











YOU CAN JOIN US ON...

 
LOGIN :

Register | Disclaimer

   EN    FR    IT 

 









Legend :    VFR   Marginal VFR   IFR   Intensive IFR   Very Intensive IFR
Visi :
Ceiling :
>= 8 km
>= 3000ft
5 to 8 km
1000 to 3000 ft
1500m to 5 km
500 to 1000 ft
800 to 1500m
200 to 500 ft
< 800m
< 200 ft
Symbols :   Thunderstorms  Fog  Heavy snow  Heavy precipitations  Wind > 20 kt






- Airport Elevation : 620 ft
- IATA code : MDW


KMDW - Chicago Midway International

CURRENT METAR :
  • 082053Z 21009KT 10SM FEW042 BKN050 BKN250 30/19 A3008 RMK AO2 SLP176 T03000189 56008

EXPIRED METARs :
  • 081953Z 20008KT 10SM BKN040 BKN250 30/19 A3009 RMK AO2 SLP177 T03000189
  • 081853Z 22010G18KT 10SM SCT046 SCT100 BKN250 29/18 A3010 RMK AO2 SLP181 T02940178

TAF KMDW
Valid from the 08 at 18:00 until the 10 at 00:00 UTC


081738Z 0818/0924 20012G20KT P6SM SCT050
FM090200 18007KT P6SM SCT050
FM091700 20010G15KT P6SM SCT250
KZAU FIR / North America



MET'MAP, your aeronautical weather chart ! - Copyright ORBIFLY December 2007 - Disclaimer

ORBIFLY MET'MAP TEAM :

Programming & Development : Alexandra Zaïnal
Concept & original design : Baudouin d'Aumeries
Assistance for programming : Marc-Olivier Méhu
Technical & hardware support : Manuel Goepfert

Contact : metmap@orbifly.com




SOURCES & CREDITS :

   NOAA       Earth
Advisory